sensor_id;sensor_type;location;lat;lon;timestamp;temperature;humidity
24452;DHT22;13350;50.984;5.822;2022-11-30T00:01:22;7.00;99.90
24452;DHT22;13350;50.984;5.822;2022-11-30T00:03:52;7.00;99.90
24452;DHT22;13350;50.984;5.822;2022-11-30T00:06:20;7.00;99.90
24452;DHT22;13350;50.984;5.822;2022-11-30T00:08:49;6.90;99.90
24452;DHT22;13350;50.984;5.822;2022-11-30T00:11:20;7.00;99.90
24452;DHT22;13350;50.984;5.822;2022-11-30T00:13:47;6.90;99.90
24452;DHT22;13350;50.984;5.822;2022-11-30T00:16:15;6.90;99.90
24452;DHT22;13350;50.984;5.822;2022-11-30T00:18:43;7.00;99.90
24452;DHT22;13350;50.984;5.822;2022-11-30T00:21:12;6.90;99.90
24452;DHT22;13350;50.984;5.822;2022-11-30T00:23:41;7.00;99.90
24452;DHT22;13350;50.984;5.822;2022-11-30T00:26:10;7.00;99.90
24452;DHT22;13350;50.984;5.822;2022-11-30T00:28:39;7.00;99.90
24452;DHT22;13350;50.984;5.822;2022-11-30T00:31:07;6.90;99.90
24452;DHT22;13350;50.984;5.822;2022-11-30T00:33:37;7.00;99.90
24452;DHT22;13350;50.984;5.822;2022-11-30T00:36:06;7.00;99.90
24452;DHT22;13350;50.984;5.822;2022-11-30T00:38:34;7.00;99.90
24452;DHT22;13350;50.984;5.822;2022-11-30T00:41:01;7.00;99.90
24452;DHT22;13350;50.984;5.822;2022-11-30T00:43:29;7.00;99.90
24452;DHT22;13350;50.984;5.822;2022-11-30T00:45:58;6.90;99.90
24452;DHT22;13350;50.984;5.822;2022-11-30T00:48:25;6.90;99.90
24452;DHT22;13350;50.984;5.822;2022-11-30T00:50:53;6.90;99.90
24452;DHT22;13350;50.984;5.822;2022-11-30T00:53:20;6.90;99.90
24452;DHT22;13350;50.984;5.822;2022-11-30T00:55:47;6.80;99.90
24452;DHT22;13350;50.984;5.822;2022-11-30T00:58:15;6.80;99.90
24452;DHT22;13350;50.984;5.822;2022-11-30T01:00:42;6.70;99.90
24452;DHT22;13350;50.984;5.822;2022-11-30T01:03:11;6.70;99.90
24452;DHT22;13350;50.984;5.822;2022-11-30T01:05:39;6.70;99.90
24452;DHT22;13350;50.984;5.822;2022-11-30T01:08:07;6.70;99.90
24452;DHT22;13350;50.984;5.822;2022-11-30T01:10:35;6.70;99.90
24452;DHT22;13350;50.984;5.822;2022-11-30T01:13:03;6.60;99.90
24452;DHT22;13350;50.984;5.822;2022-11-30T01:15:33;6.70;99.90
24452;DHT22;13350;50.984;5.822;2022-11-30T01:18:01;6.70;99.90
24452;DHT22;13350;50.984;5.822;2022-11-30T01:20:29;6.70;99.90
24452;DHT22;13350;50.984;5.822;2022-11-30T01:22:57;6.70;99.90
24452;DHT22;13350;50.984;5.822;2022-11-30T01:25:24;6.70;99.90
24452;DHT22;13350;50.984;5.822;2022-11-30T01:27:51;6.80;99.90
24452;DHT22;13350;50.984;5.822;2022-11-30T01:30:18;6.80;99.90
24452;DHT22;13350;50.984;5.822;2022-11-30T01:32:45;6.80;99.90
24452;DHT22;13350;50.984;5.822;2022-11-30T01:35:12;6.80;99.90
24452;DHT22;13350;50.984;5.822;2022-11-30T01:37:41;6.70;99.90
24452;DHT22;13350;50.984;5.822;2022-11-30T01:40:10;6.70;99.90
24452;DHT22;13350;50.984;5.822;2022-11-30T01:42:40;6.70;99.90
24452;DHT22;13350;50.984;5.822;2022-11-30T01:45:12;6.70;99.90
24452;DHT22;13350;50.984;5.822;2022-11-30T01:47:41;6.70;99.90
24452;DHT22;13350;50.984;5.822;2022-11-30T01:50:13;6.70;99.90
24452;DHT22;13350;50.984;5.822;2022-11-30T01:52:45;6.70;99.90
24452;DHT22;13350;50.984;5.822;2022-11-30T01:55:18;6.80;99.90
24452;DHT22;13350;50.984;5.822;2022-11-30T01:57:48;6.70;99.90
24452;DHT22;13350;50.984;5.822;2022-11-30T02:00:16;6.80;99.90
24452;DHT22;13350;50.984;5.822;2022-11-30T02:02:51;6.80;99.90
24452;DHT22;13350;50.984;5.822;2022-11-30T02:05:19;6.80;99.90
24452;DHT22;13350;50.984;5.822;2022-11-30T02:07:48;6.80;99.90
24452;DHT22;13350;50.984;5.822;2022-11-30T02:10:17;6.80;99.90
24452;DHT22;13350;50.984;5.822;2022-11-30T02:13:04;6.80;99.90
24452;DHT22;13350;50.984;5.822;2022-11-30T02:15:44;6.70;99.90
24452;DHT22;13350;50.984;5.822;2022-11-30T02:18:19;6.70;99.90
24452;DHT22;13350;50.984;5.822;2022-11-30T02:20:57;6.80;99.90
24452;DHT22;13350;50.984;5.822;2022-11-30T02:27:03;6.80;99.90
24452;DHT22;13350;50.984;5.822;2022-11-30T02:29:39;6.80;99.90
24452;DHT22;13350;50.984;5.822;2022-11-30T02:32:11;6.80;99.90
24452;DHT22;13350;50.984;5.822;2022-11-30T02:34:41;6.80;99.90
24452;DHT22;13350;50.984;5.822;2022-11-30T02:37:11;6.80;99.90
24452;DHT22;13350;50.984;5.822;2022-11-30T02:39:39;6.80;99.90
24452;DHT22;13350;50.984;5.822;2022-11-30T02:42:09;6.80;99.90
24452;DHT22;13350;50.984;5.822;2022-11-30T02:44:39;6.80;99.90
24452;DHT22;13350;50.984;5.822;2022-11-30T02:47:20;6.80;99.90
24452;DHT22;13350;50.984;5.822;2022-11-30T02:49:53;6.80;99.90
24452;DHT22;13350;50.984;5.822;2022-11-30T02:52:23;6.80;99.90
24452;DHT22;13350;50.984;5.822;2022-11-30T02:54:52;6.80;99.90
24452;DHT22;13350;50.984;5.822;2022-11-30T02:57:19;6.80;99.90
24452;DHT22;13350;50.984;5.822;2022-11-30T02:59:47;6.80;99.90
24452;DHT22;13350;50.984;5.822;2022-11-30T03:02:14;6.80;99.90
24452;DHT22;13350;50.984;5.822;2022-11-30T03:04:42;6.80;99.90
24452;DHT22;13350;50.984;5.822;2022-11-30T03:07:09;6.80;99.90
24452;DHT22;13350;50.984;5.822;2022-11-30T03:09:36;6.80;99.90
24452;DHT22;13350;50.984;5.822;2022-11-30T03:12:03;6.80;99.90
24452;DHT22;13350;50.984;5.822;2022-11-30T03:14:30;6.80;99.90
24452;DHT22;13350;50.984;5.822;2022-11-30T03:16:59;6.80;99.90
24452;DHT22;13350;50.984;5.822;2022-11-30T03:19:26;6.80;99.90
24452;DHT22;13350;50.984;5.822;2022-11-30T03:21:53;6.80;99.90
24452;DHT22;13350;50.984;5.822;2022-11-30T03:24:20;6.70;99.90
24452;DHT22;13350;50.984;5.822;2022-11-30T03:26:48;6.80;99.90
24452;DHT22;13350;50.984;5.822;2022-11-30T03:29:15;6.80;99.90
24452;DHT22;13350;50.984;5.822;2022-11-30T03:31:43;6.70;99.90
24452;DHT22;13350;50.984;5.822;2022-11-30T03:34:11;6.80;99.90
24452;DHT22;13350;50.984;5.822;2022-11-30T03:36:38;6.80;99.90
24452;DHT22;13350;50.984;5.822;2022-11-30T03:39:05;6.80;99.90
24452;DHT22;13350;50.984;5.822;2022-11-30T03:41:34;6.80;99.90
24452;DHT22;13350;50.984;5.822;2022-11-30T03:44:01;6.80;99.90
24452;DHT22;13350;50.984;5.822;2022-11-30T03:46:28;6.80;99.90
24452;DHT22;13350;50.984;5.822;2022-11-30T03:48:55;6.80;99.90
24452;DHT22;13350;50.984;5.822;2022-11-30T03:51:24;6.70;99.90
24452;DHT22;13350;50.984;5.822;2022-11-30T03:53:51;6.80;99.90
24452;DHT22;13350;50.984;5.822;2022-11-30T03:56:18;6.80;99.90
24452;DHT22;13350;50.984;5.822;2022-11-30T03:58:45;6.80;99.90
24452;DHT22;13350;50.984;5.822;2022-11-30T04:01:14;6.80;99.90
24452;DHT22;13350;50.984;5.822;2022-11-30T04:03:42;6.80;99.90
24452;DHT22;13350;50.984;5.822;2022-11-30T04:06:11;6.80;99.90
24452;DHT22;13350;50.984;5.822;2022-11-30T04:08:40;6.80;99.90
24452;DHT22;13350;50.984;5.822;2022-11-30T04:11:09;6.80;99.90
24452;DHT22;13350;50.984;5.822;2022-11-30T04:13:37;6.80;99.90
24452;DHT22;13350;50.984;5.822;2022-11-30T04:16:04;6.80;99.90
24452;DHT22;13350;50.984;5.822;2022-11-30T04:18:33;6.80;99.90
24452;DHT22;13350;50.984;5.822;2022-11-30T04:21:01;6.80;99.90
24452;DHT22;13350;50.984;5.822;2022-11-30T04:23:29;6.80;99.90
24452;DHT22;13350;50.984;5.822;2022-11-30T04:25:58;6.80;99.90
24452;DHT22;13350;50.984;5.822;2022-11-30T04:28:25;6.80;99.90
24452;DHT22;13350;50.984;5.822;2022-11-30T04:30:53;6.80;99.90
24452;DHT22;13350;50.984;5.822;2022-11-30T04:33:20;6.80;99.90
24452;DHT22;13350;50.984;5.822;2022-11-30T04:35:50;6.80;99.90
24452;DHT22;13350;50.984;5.822;2022-11-30T04:38:18;6.90;99.90
24452;DHT22;13350;50.984;5.822;2022-11-30T04:40:45;6.90;99.90
24452;DHT22;13350;50.984;5.822;2022-11-30T04:43:15;6.90;99.90
24452;DHT22;13350;50.984;5.822;2022-11-30T04:45:43;6.90;99.90
24452;DHT22;13350;50.984;5.822;2022-11-30T04:48:10;6.90;99.90
24452;DHT22;13350;50.984;5.822;2022-11-30T04:50:37;6.90;99.90
24452;DHT22;13350;50.984;5.822;2022-11-30T04:53:05;6.90;99.90
24452;DHT22;13350;50.984;5.822;2022-11-30T04:55:32;6.90;99.90
24452;DHT22;13350;50.984;5.822;2022-11-30T04:58:02;6.90;99.90
24452;DHT22;13350;50.984;5.822;2022-11-30T05:00:31;6.90;99.90
24452;DHT22;13350;50.984;5.822;2022-11-30T05:02:58;6.90;99.90
24452;DHT22;13350;50.984;5.822;2022-11-30T05:05:25;6.90;99.90
24452;DHT22;13350;50.984;5.822;2022-11-30T05:07:55;6.90;99.90
24452;DHT22;13350;50.984;5.822;2022-11-30T05:10:23;6.90;99.90
24452;DHT22;13350;50.984;5.822;2022-11-30T05:12:50;7.00;99.90
24452;DHT22;13350;50.984;5.822;2022-11-30T05:15:17;7.00;99.90
24452;DHT22;13350;50.984;5.822;2022-11-30T05:17:46;7.00;99.90
24452;DHT22;13350;50.984;5.822;2022-11-30T05:20:13;7.00;99.90
24452;DHT22;13350;50.984;5.822;2022-11-30T05:22:40;7.00;99.90
24452;DHT22;13350;50.984;5.822;2022-11-30T05:25:08;7.00;99.90
24452;DHT22;13350;50.984;5.822;2022-11-30T05:27:36;7.00;99.90
24452;DHT22;13350;50.984;5.822;2022-11-30T05:30:04;7.00;99.90
24452;DHT22;13350;50.984;5.822;2022-11-30T05:32:31;6.90;99.90
24452;DHT22;13350;50.984;5.822;2022-11-30T05:35:00;6.90;99.90
24452;DHT22;13350;50.984;5.822;2022-11-30T05:37:27;6.90;99.90
24452;DHT22;13350;50.984;5.822;2022-11-30T05:39:54;6.90;99.90
24452;DHT22;13350;50.984;5.822;2022-11-30T05:42:21;6.90;99.90
24452;DHT22;13350;50.984;5.822;2022-11-30T05:44:48;6.90;99.90
24452;DHT22;13350;50.984;5.822;2022-11-30T05:47:15;6.90;99.90
24452;DHT22;13350;50.984;5.822;2022-11-30T05:49:42;6.80;99.90
24452;DHT22;13350;50.984;5.822;2022-11-30T05:52:11;6.80;99.90
24452;DHT22;13350;50.984;5.822;2022-11-30T05:54:38;6.80;99.90
24452;DHT22;13350;50.984;5.822;2022-11-30T05:57:05;6.80;99.90
24452;DHT22;13350;50.984;5.822;2022-11-30T05:59:32;6.80;99.90
24452;DHT22;13350;50.984;5.822;2022-11-30T06:01:59;6.70;99.90
24452;DHT22;13350;50.984;5.822;2022-11-30T06:04:27;6.80;99.90
24452;DHT22;13350;50.984;5.822;2022-11-30T06:06:54;6.70;99.90
24452;DHT22;13350;50.984;5.822;2022-11-30T06:09:22;6.70;99.90
24452;DHT22;13350;50.984;5.822;2022-11-30T06:11:49;6.70;99.90
24452;DHT22;13350;50.984;5.822;2022-11-30T06:14:16;6.70;99.90
24452;DHT22;13350;50.984;5.822;2022-11-30T06:16:44;6.70;99.90
24452;DHT22;13350;50.984;5.822;2022-11-30T06:19:11;6.70;99.90
24452;DHT22;13350;50.984;5.822;2022-11-30T06:21:38;6.70;99.90
24452;DHT22;13350;50.984;5.822;2022-11-30T06:24:06;6.70;99.90
24452;DHT22;13350;50.984;5.822;2022-11-30T06:26:34;6.60;99.90
24452;DHT22;13350;50.984;5.822;2022-11-30T06:29:01;6.60;99.90
24452;DHT22;13350;50.984;5.822;2022-11-30T06:31:29;6.60;99.90
24452;DHT22;13350;50.984;5.822;2022-11-30T06:33:57;6.60;99.90
24452;DHT22;13350;50.984;5.822;2022-11-30T06:36:24;6.60;99.90
24452;DHT22;13350;50.984;5.822;2022-11-30T06:38:51;6.70;99.90
24452;DHT22;13350;50.984;5.822;2022-11-30T06:41:18;6.70;99.90
24452;DHT22;13350;50.984;5.822;2022-11-30T06:43:47;6.70;99.90
24452;DHT22;13350;50.984;5.822;2022-11-30T06:46:14;6.70;99.90
24452;DHT22;13350;50.984;5.822;2022-11-30T06:48:41;6.70;99.90
24452;DHT22;13350;50.984;5.822;2022-11-30T06:51:09;6.70;99.90
24452;DHT22;13350;50.984;5.822;2022-11-30T06:53:36;6.70;99.90
24452;DHT22;13350;50.984;5.822;2022-11-30T06:56:04;6.70;99.90
24452;DHT22;13350;50.984;5.822;2022-11-30T06:58:32;6.70;99.90
24452;DHT22;13350;50.984;5.822;2022-11-30T07:01:03;6.60;99.90
24452;DHT22;13350;50.984;5.822;2022-11-30T07:03:30;6.60;99.90
24452;DHT22;13350;50.984;5.822;2022-11-30T07:05:57;6.60;99.90
24452;DHT22;13350;50.984;5.822;2022-11-30T07:08:24;6.50;99.90
24452;DHT22;13350;50.984;5.822;2022-11-30T07:10:52;6.50;99.90
24452;DHT22;13350;50.984;5.822;2022-11-30T07:13:19;6.50;99.90
24452;DHT22;13350;50.984;5.822;2022-11-30T07:15:46;6.40;99.90
24452;DHT22;13350;50.984;5.822;2022-11-30T07:18:15;6.40;99.90
24452;DHT22;13350;50.984;5.822;2022-11-30T07:20:42;6.40;99.90
24452;DHT22;13350;50.984;5.822;2022-11-30T07:23:09;6.30;99.90
24452;DHT22;13350;50.984;5.822;2022-11-30T07:25:58;6.20;99.90
24452;DHT22;13350;50.984;5.822;2022-11-30T07:28:36;6.20;99.90
24452;DHT22;13350;50.984;5.822;2022-11-30T07:31:15;6.10;99.90
24452;DHT22;13350;50.984;5.822;2022-11-30T07:33:45;6.10;99.90
24452;DHT22;13350;50.984;5.822;2022-11-30T07:36:12;6.20;99.90
24452;DHT22;13350;50.984;5.822;2022-11-30T07:38:39;6.20;99.90
24452;DHT22;13350;50.984;5.822;2022-11-30T07:41:07;6.20;99.90
24452;DHT22;13350;50.984;5.822;2022-11-30T07:43:34;6.20;99.90
24452;DHT22;13350;50.984;5.822;2022-11-30T07:46:02;6.10;99.90
24452;DHT22;13350;50.984;5.822;2022-11-30T07:48:29;6.10;99.90
24452;DHT22;13350;50.984;5.822;2022-11-30T07:51:02;6.10;99.90
24452;DHT22;13350;50.984;5.822;2022-11-30T07:53:30;6.20;99.90
24452;DHT22;13350;50.984;5.822;2022-11-30T07:56:02;6.20;99.90
24452;DHT22;13350;50.984;5.822;2022-11-30T07:58:29;6.20;99.90
24452;DHT22;13350;50.984;5.822;2022-11-30T08:01:01;6.20;99.90
24452;DHT22;13350;50.984;5.822;2022-11-30T08:03:28;6.20;99.90
24452;DHT22;13350;50.984;5.822;2022-11-30T08:05:59;6.20;99.90
24452;DHT22;13350;50.984;5.822;2022-11-30T08:08:30;6.20;99.90
24452;DHT22;13350;50.984;5.822;2022-11-30T08:10:57;6.30;99.90
24452;DHT22;13350;50.984;5.822;2022-11-30T08:13:25;6.40;99.90
24452;DHT22;13350;50.984;5.822;2022-11-30T08:15:52;6.30;99.90
24452;DHT22;13350;50.984;5.822;2022-11-30T08:18:19;6.30;99.90
24452;DHT22;13350;50.984;5.822;2022-11-30T08:20:46;6.30;99.90
24452;DHT22;13350;50.984;5.822;2022-11-30T08:23:14;6.30;99.90
24452;DHT22;13350;50.984;5.822;2022-11-30T08:25:42;6.30;99.90
24452;DHT22;13350;50.984;5.822;2022-11-30T08:28:09;6.30;99.90
24452;DHT22;13350;50.984;5.822;2022-11-30T08:30:37;6.30;99.90
24452;DHT22;13350;50.984;5.822;2022-11-30T08:33:04;6.30;99.90
24452;DHT22;13350;50.984;5.822;2022-11-30T08:35:31;6.40;99.90
24452;DHT22;13350;50.984;5.822;2022-11-30T08:37:58;6.40;99.90
24452;DHT22;13350;50.984;5.822;2022-11-30T08:40:26;6.40;99.90
24452;DHT22;13350;50.984;5.822;2022-11-30T08:42:54;6.50;99.90
24452;DHT22;13350;50.984;5.822;2022-11-30T08:45:21;6.50;99.90
24452;DHT22;13350;50.984;5.822;2022-11-30T08:47:48;6.50;99.90
24452;DHT22;13350;50.984;5.822;2022-11-30T08:50:16;6.50;99.90
24452;DHT22;13350;50.984;5.822;2022-11-30T08:52:43;6.50;99.90
24452;DHT22;13350;50.984;5.822;2022-11-30T08:55:10;6.50;99.90
24452;DHT22;13350;50.984;5.822;2022-11-30T08:57:37;6.60;99.90
24452;DHT22;13350;50.984;5.822;2022-11-30T09:00:07;6.60;99.90
24452;DHT22;13350;50.984;5.822;2022-11-30T09:02:36;6.60;99.90
24452;DHT22;13350;50.984;5.822;2022-11-30T09:05:03;6.70;99.90
24452;DHT22;13350;50.984;5.822;2022-11-30T09:07:31;6.70;99.90
24452;DHT22;13350;50.984;5.822;2022-11-30T09:09:58;6.80;99.90
24452;DHT22;13350;50.984;5.822;2022-11-30T09:12:25;6.80;99.90
24452;DHT22;13350;50.984;5.822;2022-11-30T09:14:52;6.80;99.90
24452;DHT22;13350;50.984;5.822;2022-11-30T09:17:21;6.70;99.90
24452;DHT22;13350;50.984;5.822;2022-11-30T09:19:48;6.60;99.90
24452;DHT22;13350;50.984;5.822;2022-11-30T09:22:15;6.60;99.90
24452;DHT22;13350;50.984;5.822;2022-11-30T09:24:43;6.50;99.90
24452;DHT22;13350;50.984;5.822;2022-11-30T09:27:10;6.50;99.90
24452;DHT22;13350;50.984;5.822;2022-11-30T09:29:37;6.50;99.90
24452;DHT22;13350;50.984;5.822;2022-11-30T09:32:04;6.50;99.90
24452;DHT22;13350;50.984;5.822;2022-11-30T09:34:33;6.60;99.90
24452;DHT22;13350;50.984;5.822;2022-11-30T09:37:00;6.60;99.90
24452;DHT22;13350;50.984;5.822;2022-11-30T09:39:27;6.60;99.90
24452;DHT22;13350;50.984;5.822;2022-11-30T09:42:31;6.50;99.90
24452;DHT22;13350;50.984;5.822;2022-11-30T09:45:09;6.50;99.90
24452;DHT22;13350;50.984;5.822;2022-11-30T09:47:55;6.50;99.90
24452;DHT22;13350;50.984;5.822;2022-11-30T09:50:30;6.50;99.90
24452;DHT22;13350;50.984;5.822;2022-11-30T09:53:02;6.50;99.90
24452;DHT22;13350;50.984;5.822;2022-11-30T09:55:32;6.40;99.90
24452;DHT22;13350;50.984;5.822;2022-11-30T09:58:05;6.50;99.90
24452;DHT22;13350;50.984;5.822;2022-11-30T10:00:33;6.50;99.90
24452;DHT22;13350;50.984;5.822;2022-11-30T10:03:03;6.50;99.90
24452;DHT22;13350;50.984;5.822;2022-11-30T10:05:42;6.60;99.90
24452;DHT22;13350;50.984;5.822;2022-11-30T10:08:38;6.70;99.90
24452;DHT22;13350;50.984;5.822;2022-11-30T10:11:33;6.80;99.90
24452;DHT22;13350;50.984;5.822;2022-11-30T10:14:16;7.00;99.90
24452;DHT22;13350;50.984;5.822;2022-11-30T10:16:51;7.10;99.90
24452;DHT22;13350;50.984;5.822;2022-11-30T10:19:34;7.40;99.90
24452;DHT22;13350;50.984;5.822;2022-11-30T10:22:15;7.60;99.90
24452;DHT22;13350;50.984;5.822;2022-11-30T10:25:00;7.70;99.90
24452;DHT22;13350;50.984;5.822;2022-11-30T10:27:35;7.80;99.90
24452;DHT22;13350;50.984;5.822;2022-11-30T10:30:12;7.80;99.90
24452;DHT22;13350;50.984;5.822;2022-11-30T10:32:41;8.00;99.90
24452;DHT22;13350;50.984;5.822;2022-11-30T10:35:17;8.20;99.90
24452;DHT22;13350;50.984;5.822;2022-11-30T10:37:48;8.70;99.90
24452;DHT22;13350;50.984;5.822;2022-11-30T10:40:19;8.90;99.90
24452;DHT22;13350;50.984;5.822;2022-11-30T10:42:55;8.60;99.90
24452;DHT22;13350;50.984;5.822;2022-11-30T10:45:26;8.50;99.90
24452;DHT22;13350;50.984;5.822;2022-11-30T10:47:59;8.40;99.90
24452;DHT22;13350;50.984;5.822;2022-11-30T10:50:30;8.10;99.90
24452;DHT22;13350;50.984;5.822;2022-11-30T10:53:00;7.80;99.90
24452;DHT22;13350;50.984;5.822;2022-11-30T10:55:28;7.70;99.90
24452;DHT22;13350;50.984;5.822;2022-11-30T10:58:01;7.60;99.90
24452;DHT22;13350;50.984;5.822;2022-11-30T11:00:30;7.60;99.90
24452;DHT22;13350;50.984;5.822;2022-11-30T11:02:57;7.70;99.90
24452;DHT22;13350;50.984;5.822;2022-11-30T11:05:25;7.60;99.90
24452;DHT22;13350;50.984;5.822;2022-11-30T11:07:55;7.60;99.90
24452;DHT22;13350;50.984;5.822;2022-11-30T11:10:32;7.50;99.90
24452;DHT22;13350;50.984;5.822;2022-11-30T11:12:59;7.60;99.90
24452;DHT22;13350;50.984;5.822;2022-11-30T11:15:28;8.00;99.90
24452;DHT22;13350;50.984;5.822;2022-11-30T11:18:11;8.70;99.90
24452;DHT22;13350;50.984;5.822;2022-11-30T11:20:45;9.10;99.90
24452;DHT22;13350;50.984;5.822;2022-11-30T11:23:20;8.90;99.90
24452;DHT22;13350;50.984;5.822;2022-11-30T11:25:50;8.50;99.90
24452;DHT22;13350;50.984;5.822;2022-11-30T11:28:19;8.30;99.90
24452;DHT22;13350;50.984;5.822;2022-11-30T11:30:51;8.20;99.90
24452;DHT22;13350;50.984;5.822;2022-11-30T11:33:21;8.20;99.90
24452;DHT22;13350;50.984;5.822;2022-11-30T11:35:50;8.20;99.90
24452;DHT22;13350;50.984;5.822;2022-11-30T11:38:20;8.20;99.90
24452;DHT22;13350;50.984;5.822;2022-11-30T11:40:55;8.10;99.90
24452;DHT22;13350;50.984;5.822;2022-11-30T11:43:22;8.20;99.90
24452;DHT22;13350;50.984;5.822;2022-11-30T11:45:52;8.20;99.90
24452;DHT22;13350;50.984;5.822;2022-11-30T11:48:29;8.10;99.90
24452;DHT22;13350;50.984;5.822;2022-11-30T11:50:57;8.00;99.90
24452;DHT22;13350;50.984;5.822;2022-11-30T11:53:41;8.00;99.90
24452;DHT22;13350;50.984;5.822;2022-11-30T11:56:13;8.00;99.90
24452;DHT22;13350;50.984;5.822;2022-11-30T11:58:46;8.00;99.90
24452;DHT22;13350;50.984;5.822;2022-11-30T12:01:20;8.20;99.90
24452;DHT22;13350;50.984;5.822;2022-11-30T12:04:04;8.20;99.90
24452;DHT22;13350;50.984;5.822;2022-11-30T12:06:37;8.20;99.90
24452;DHT22;13350;50.984;5.822;2022-11-30T12:09:11;8.10;99.90
24452;DHT22;13350;50.984;5.822;2022-11-30T12:11:44;8.10;99.90
24452;DHT22;13350;50.984;5.822;2022-11-30T12:14:13;8.00;99.90
24452;DHT22;13350;50.984;5.822;2022-11-30T12:16:49;7.90;99.90
24452;DHT22;13350;50.984;5.822;2022-11-30T12:19:23;7.90;99.90
24452;DHT22;13350;50.984;5.822;2022-11-30T12:21:59;8.00;99.90
24452;DHT22;13350;50.984;5.822;2022-11-30T12:24:48;8.00;99.90
24452;DHT22;13350;50.984;5.822;2022-11-30T12:27:26;7.90;99.90
24452;DHT22;13350;50.984;5.822;2022-11-30T12:30:02;7.90;99.90
24452;DHT22;13350;50.984;5.822;2022-11-30T12:32:47;7.90;99.90
24452;DHT22;13350;50.984;5.822;2022-11-30T12:35:22;7.80;99.90
24452;DHT22;13350;50.984;5.822;2022-11-30T12:38:00;7.70;99.90
24452;DHT22;13350;50.984;5.822;2022-11-30T12:40:37;7.70;99.90
24452;DHT22;13350;50.984;5.822;2022-11-30T12:43:17;7.70;99.90
24452;DHT22;13350;50.984;5.822;2022-11-30T12:45:51;7.60;99.90
24452;DHT22;13350;50.984;5.822;2022-11-30T12:48:25;7.60;99.90
24452;DHT22;13350;50.984;5.822;2022-11-30T12:51:11;7.60;99.90
24452;DHT22;13350;50.984;5.822;2022-11-30T12:53:47;7.60;99.90
24452;DHT22;13350;50.984;5.822;2022-11-30T12:56:22;7.60;99.90
24452;DHT22;13350;50.984;5.822;2022-11-30T12:59:02;7.60;99.90
24452;DHT22;13350;50.984;5.822;2022-11-30T13:01:47;7.60;99.90
24452;DHT22;13350;50.984;5.822;2022-11-30T13:04:21;7.60;99.90
24452;DHT22;13350;50.984;5.822;2022-11-30T13:06:56;7.60;99.90
24452;DHT22;13350;50.984;5.822;2022-11-30T13:09:29;7.60;99.90
24452;DHT22;13350;50.984;5.822;2022-11-30T13:12:01;7.70;99.90
24452;DHT22;13350;50.984;5.822;2022-11-30T13:14:32;7.80;99.90
24452;DHT22;13350;50.984;5.822;2022-11-30T13:17:01;7.80;99.90
24452;DHT22;13350;50.984;5.822;2022-11-30T13:19:43;7.80;99.90
24452;DHT22;13350;50.984;5.822;2022-11-30T13:22:23;7.80;99.90
24452;DHT22;13350;50.984;5.822;2022-11-30T13:24:58;7.90;99.90
24452;DHT22;13350;50.984;5.822;2022-11-30T13:27:31;8.00;99.90
24452;DHT22;13350;50.984;5.822;2022-11-30T13:30:21;8.00;99.90
24452;DHT22;13350;50.984;5.822;2022-11-30T13:32:51;8.00;99.90
24452;DHT22;13350;50.984;5.822;2022-11-30T13:35:40;8.00;99.90
24452;DHT22;13350;50.984;5.822;2022-11-30T13:38:16;8.00;99.90
24452;DHT22;13350;50.984;5.822;2022-11-30T13:40:54;7.90;99.90
24452;DHT22;13350;50.984;5.822;2022-11-30T13:43:23;7.80;99.90
24452;DHT22;13350;50.984;5.822;2022-11-30T13:46:12;7.80;99.90
24452;DHT22;13350;50.984;5.822;2022-11-30T13:48:41;7.80;99.90
24452;DHT22;13350;50.984;5.822;2022-11-30T13:51:09;7.70;99.90
24452;DHT22;13350;50.984;5.822;2022-11-30T13:53:37;7.70;99.90
24452;DHT22;13350;50.984;5.822;2022-11-30T14:05:24;7.50;99.90
24452;DHT22;13350;50.984;5.822;2022-11-30T14:08:11;7.40;99.90
24452;DHT22;13350;50.984;5.822;2022-11-30T14:10:42;7.50;99.90
24452;DHT22;13350;50.984;5.822;2022-11-30T14:13:27;7.50;99.90
24452;DHT22;13350;50.984;5.822;2022-11-30T14:15:57;7.50;99.90
24452;DHT22;13350;50.984;5.822;2022-11-30T14:18:38;7.50;99.90
24452;DHT22;13350;50.984;5.822;2022-11-30T14:21:18;7.50;99.90
24452;DHT22;13350;50.984;5.822;2022-11-30T14:23:52;7.50;99.90
24452;DHT22;13350;50.984;5.822;2022-11-30T14:26:26;7.50;99.90
24452;DHT22;13350;50.984;5.822;2022-11-30T14:29:01;7.50;99.90
24452;DHT22;13350;50.984;5.822;2022-11-30T14:31:32;7.50;99.90
24452;DHT22;13350;50.984;5.822;2022-11-30T14:34:05;7.50;99.90
24452;DHT22;13350;50.984;5.822;2022-11-30T14:36:36;7.40;99.90
24452;DHT22;13350;50.984;5.822;2022-11-30T14:39:22;7.40;99.90
24452;DHT22;13350;50.984;5.822;2022-11-30T14:41:50;7.40;99.90
24452;DHT22;13350;50.984;5.822;2022-11-30T14:44:17;7.30;99.90
24452;DHT22;13350;50.984;5.822;2022-11-30T14:46:44;7.20;99.90
24452;DHT22;13350;50.984;5.822;2022-11-30T14:49:15;7.10;99.90
24452;DHT22;13350;50.984;5.822;2022-11-30T14:51:46;7.00;99.90
24452;DHT22;13350;50.984;5.822;2022-11-30T14:54:30;6.80;99.90
24452;DHT22;13350;50.984;5.822;2022-11-30T14:57:06;6.70;99.90
24452;DHT22;13350;50.984;5.822;2022-11-30T14:59:42;6.50;99.90
24452;DHT22;13350;50.984;5.822;2022-11-30T15:02:20;6.50;99.90
24452;DHT22;13350;50.984;5.822;2022-11-30T15:04:51;6.40;99.90
24452;DHT22;13350;50.984;5.822;2022-11-30T15:07:20;6.20;99.90
24452;DHT22;13350;50.984;5.822;2022-11-30T15:09:50;6.10;99.90
24452;DHT22;13350;50.984;5.822;2022-11-30T15:12:20;6.00;99.90
24452;DHT22;13350;50.984;5.822;2022-11-30T15:15:14;5.90;99.90
24452;DHT22;13350;50.984;5.822;2022-11-30T15:17:48;5.90;99.90
24452;DHT22;13350;50.984;5.822;2022-11-30T15:20:23;5.80;99.90
24452;DHT22;13350;50.984;5.822;2022-11-30T15:22:52;5.70;99.90
24452;DHT22;13350;50.984;5.822;2022-11-30T15:25:20;5.60;99.90
24452;DHT22;13350;50.984;5.822;2022-11-30T15:27:49;5.50;99.90
24452;DHT22;13350;50.984;5.822;2022-11-30T15:30:16;5.50;99.90
24452;DHT22;13350;50.984;5.822;2022-11-30T15:32:45;5.50;99.90
24452;DHT22;13350;50.984;5.822;2022-11-30T15:35:20;5.40;99.90
24452;DHT22;13350;50.984;5.822;2022-11-30T15:37:47;5.30;99.90
24452;DHT22;13350;50.984;5.822;2022-11-30T15:40:20;5.10;99.90
24452;DHT22;13350;50.984;5.822;2022-11-30T15:42:49;4.90;99.90
24452;DHT22;13350;50.984;5.822;2022-11-30T15:45:20;4.70;99.90
24452;DHT22;13350;50.984;5.822;2022-11-30T15:47:48;4.60;99.90
24452;DHT22;13350;50.984;5.822;2022-11-30T15:50:32;4.50;99.90
24452;DHT22;13350;50.984;5.822;2022-11-30T15:53:02;4.40;99.90
24452;DHT22;13350;50.984;5.822;2022-11-30T15:55:40;4.40;99.90
24452;DHT22;13350;50.984;5.822;2022-11-30T15:58:27;4.30;99.90
24452;DHT22;13350;50.984;5.822;2022-11-30T16:01:03;4.30;99.90
24452;DHT22;13350;50.984;5.822;2022-11-30T16:03:31;4.20;99.90
24452;DHT22;13350;50.984;5.822;2022-11-30T16:06:02;4.30;99.90
24452;DHT22;13350;50.984;5.822;2022-11-30T16:08:31;4.40;99.90
24452;DHT22;13350;50.984;5.822;2022-11-30T16:10:58;4.50;99.90
24452;DHT22;13350;50.984;5.822;2022-11-30T16:13:28;4.70;99.90
24452;DHT22;13350;50.984;5.822;2022-11-30T16:15:55;4.60;99.90
24452;DHT22;13350;50.984;5.822;2022-11-30T16:18:27;4.60;99.90
24452;DHT22;13350;50.984;5.822;2022-11-30T16:20:56;4.70;99.90